createdAt,value
2022-10-29T00:00:53.226Z,39.42
2022-10-29T00:03:21.797Z,39.10
2022-10-29T00:06:00.064Z,41.30
2022-10-29T00:08:28.156Z,41.05
2022-10-29T00:10:55.044Z,41.28
2022-10-29T00:13:21.850Z,40.40
2022-10-29T00:15:48.731Z,41.60
2022-10-29T00:18:15.547Z,39.10
2022-10-29T00:20:42.483Z,41.70
2022-10-29T00:23:09.309Z,39.10
2022-10-29T00:25:36.160Z,37.63
2022-10-29T00:28:02.931Z,40.20
2022-10-29T00:30:29.737Z,40.13
2022-10-29T00:32:56.955Z,38.67
2022-10-29T00:35:24.022Z,37.25
2022-10-29T00:37:51.149Z,40.13
2022-10-29T00:40:18.920Z,40.72
2022-10-29T00:42:45.715Z,52.90
2022-10-29T00:45:20.331Z,39.83
2022-10-29T00:47:52.063Z,49.58
2022-10-29T00:50:20.466Z,42.97
2022-10-29T00:52:50.123Z,44.97
2022-10-29T00:55:19.967Z,38.45
2022-10-29T00:57:51.946Z,40.13
2022-10-29T01:00:20.991Z,39.58
2022-10-29T01:02:48.361Z,41.60
2022-10-29T01:05:23.170Z,49.45
2022-10-29T01:07:49.966Z,110.93
2022-10-29T01:10:20.313Z,43.33
2022-10-29T01:13:07.441Z,58.08
2022-10-29T01:16:01.077Z,72.93
2022-10-29T01:18:33.972Z,60.10
2022-10-29T01:21:28.076Z,60.25
2022-10-29T01:24:06.899Z,71.35
2022-10-29T01:27:05.718Z,72.28
2022-10-29T01:29:54.275Z,87.20
2022-10-29T01:32:42.455Z,61.33
2022-10-29T01:35:25.158Z,51.80
2022-10-29T01:38:14.697Z,39.58
2022-10-29T01:41:07.690Z,41.22
2022-10-29T01:43:55.814Z,46.15
2022-10-29T01:46:33.999Z,37.13
2022-10-29T01:49:07.419Z,36.80
2022-10-29T01:51:36.684Z,36.65
2022-10-29T01:54:08.711Z,35.58
2022-10-29T01:56:35.703Z,37.85
2022-10-29T01:59:14.369Z,35.80
2022-10-29T02:02:11.613Z,35.45
2022-10-29T02:04:57.560Z,36.65
2022-10-29T02:07:24.303Z,34.33
2022-10-29T02:10:00.200Z,37.10
2022-10-29T02:12:39.041Z,35.08
2022-10-29T02:15:17.977Z,37.80
2022-10-29T02:17:45.118Z,49.75
2022-10-29T02:20:14.169Z,37.17
2022-10-29T02:22:41.374Z,36.40
2022-10-29T02:25:09.433Z,35.08
2022-10-29T02:27:36.478Z,35.03
2022-10-29T02:30:04.095Z,36.53
2022-10-29T02:32:32.587Z,34.13
2022-10-29T02:35:01.052Z,33.97
2022-10-29T02:37:28.083Z,34.88
2022-10-29T02:39:54.885Z,35.45
2022-10-29T02:42:22.464Z,36.30
2022-10-29T02:44:49.258Z,36.72
2022-10-29T02:47:16.045Z,35.97
2022-10-29T02:49:42.805Z,37.60
2022-10-29T02:52:09.662Z,36.50
2022-10-29T02:54:36.486Z,35.72
2022-10-29T02:57:03.382Z,37.47
2022-10-29T02:59:30.170Z,37.05
2022-10-29T03:01:57.064Z,36.17
2022-10-29T03:04:24.049Z,33.63
2022-10-29T03:06:51.967Z,32.05
2022-10-29T03:09:18.763Z,32.38
2022-10-29T03:11:45.539Z,33.72
2022-10-29T03:14:12.367Z,33.17
2022-10-29T03:16:39.143Z,32.55
2022-10-29T03:19:05.992Z,31.75
2022-10-29T03:21:32.769Z,32.47
2022-10-29T03:23:59.764Z,32.70
2022-10-29T03:26:26.611Z,30.23
2022-10-29T03:28:53.421Z,30.88
2022-10-29T03:31:20.794Z,30.88
2022-10-29T03:33:47.615Z,32.10
2022-10-29T03:36:14.537Z,32.20
2022-10-29T03:38:41.387Z,33.25
2022-10-29T03:41:10.608Z,34.00
2022-10-29T03:43:38.737Z,32.03
2022-10-29T03:46:06.424Z,32.15
2022-10-29T03:48:34.067Z,32.17
2022-10-29T03:51:05.829Z,30.98
2022-10-29T03:53:34.123Z,39.15
2022-10-29T03:56:00.999Z,31.67
2022-10-29T03:58:28.227Z,32.50
2022-10-29T04:01:03.253Z,36.88
2022-10-29T04:03:31.534Z,38.80
2022-10-29T04:05:59.867Z,32.55
2022-10-29T04:08:26.723Z,44.27
2022-10-29T04:10:54.039Z,35.73
2022-10-29T04:13:21.045Z,33.22
2022-10-29T04:15:47.911Z,31.88
2022-10-29T04:18:14.665Z,31.98
2022-10-29T04:21:05.961Z,31.75
2022-10-29T04:29:03.555Z,33.67
2022-10-29T04:31:30.322Z,33.72
2022-10-29T04:33:57.171Z,32.78
2022-10-29T04:36:24.042Z,31.83
2022-10-29T04:38:51.042Z,31.60
2022-10-29T04:41:17.846Z,30.92
2022-10-29T04:43:44.603Z,32.72
2022-10-29T04:46:11.608Z,32.17
2022-10-29T04:48:38.623Z,31.65
2022-10-29T04:51:05.716Z,31.52
2022-10-29T04:53:32.864Z,34.53
2022-10-29T04:56:01.486Z,31.30
2022-10-29T04:58:28.981Z,31.10
2022-10-29T05:01:05.210Z,30.40
2022-10-29T05:03:33.206Z,32.42
2022-10-29T05:06:03.447Z,32.90
2022-10-29T05:08:30.308Z,31.40
2022-10-29T05:10:57.325Z,38.38
2022-10-29T05:13:24.061Z,31.88
2022-10-29T05:15:53.459Z,40.08
2022-10-29T05:18:21.096Z,32.50
2022-10-29T05:20:47.925Z,33.22
2022-10-29T05:23:15.255Z,41.03
2022-10-29T05:25:42.248Z,30.92
2022-10-29T05:28:14.416Z,29.35
2022-10-29T05:30:41.845Z,29.85
2022-10-29T05:33:09.480Z,30.15
2022-10-29T05:35:36.542Z,29.70
2022-10-29T05:38:04.093Z,27.13
2022-10-29T05:40:31.139Z,34.60
2022-10-29T05:42:58.480Z,29.73
2022-10-29T05:45:25.645Z,31.02
2022-10-29T05:48:00.362Z,29.20
2022-10-29T05:50:28.350Z,29.80
2022-10-29T05:52:59.672Z,27.60
2022-10-29T05:55:27.642Z,27.05
2022-10-29T05:57:58.759Z,27.17
2022-10-29T06:00:27.300Z,30.83
2022-10-29T06:02:54.405Z,28.42
2022-10-29T06:05:22.196Z,31.27
2022-10-29T06:07:59.714Z,36.92
2022-10-29T06:10:29.163Z,33.90
2022-10-29T06:12:56.105Z,36.92
2022-10-29T06:15:23.272Z,29.75
2022-10-29T06:17:50.394Z,28.95
2022-10-29T06:20:21.205Z,33.70
2022-10-29T06:22:48.395Z,33.33
2022-10-29T06:25:15.279Z,31.23
2022-10-29T06:27:42.030Z,32.97
2022-10-29T06:30:09.389Z,31.13
2022-10-29T06:32:36.243Z,33.20
2022-10-29T06:35:03.030Z,37.38
2022-10-29T06:37:33.210Z,30.42
2022-10-29T06:39:59.994Z,30.05
2022-10-29T06:42:26.766Z,28.33
2022-10-29T06:44:53.540Z,33.35
2022-10-29T06:47:20.287Z,39.05
2022-10-29T06:49:47.069Z,42.60
2022-10-29T06:52:13.912Z,38.70
2022-10-29T06:54:40.641Z,31.88
2022-10-29T06:57:07.398Z,41.55
2022-10-29T06:59:34.130Z,46.13
2022-10-29T07:02:01.061Z,34.38
2022-10-29T07:04:27.923Z,36.17
2022-10-29T07:06:54.727Z,48.78
2022-10-29T07:09:21.496Z,34.70
2022-10-29T07:11:48.326Z,29.05
2022-10-29T07:14:15.078Z,39.03
2022-10-29T07:16:41.906Z,37.95
2022-10-29T07:19:08.751Z,28.05
2022-10-29T07:21:35.508Z,32.25
2022-10-29T07:24:02.369Z,39.40
2022-10-29T07:26:29.153Z,34.10
2022-10-29T07:28:59.191Z,36.83
2022-10-29T07:31:25.945Z,44.95
2022-10-29T07:33:52.864Z,37.92
2022-10-29T07:36:19.735Z,42.30
2022-10-29T07:38:47.169Z,47.33
2022-10-29T07:41:14.120Z,32.78
2022-10-29T07:43:41.388Z,28.33
2022-10-29T07:46:08.190Z,30.75
2022-10-29T07:48:34.936Z,36.25
2022-10-29T07:51:02.298Z,48.70
2022-10-29T07:53:31.380Z,44.33
2022-10-29T07:56:00.557Z,34.42
2022-10-29T07:58:27.449Z,33.03
2022-10-29T08:00:54.414Z,34.30
2022-10-29T08:03:21.734Z,41.22
2022-10-29T08:05:55.392Z,34.70
2022-10-29T08:08:23.912Z,37.30
2022-10-29T08:10:50.697Z,43.10
2022-10-29T08:13:17.518Z,38.92
2022-10-29T08:15:46.860Z,38.15
2022-10-29T08:18:18.149Z,32.35
2022-10-29T08:20:45.887Z,38.28
2022-10-29T08:23:15.961Z,30.10
2022-10-29T08:25:43.145Z,42.72
2022-10-29T08:28:12.625Z,33.47
2022-10-29T08:30:40.325Z,31.50
2022-10-29T08:33:07.307Z,31.90
2022-10-29T08:35:34.234Z,48.70
2022-10-29T08:38:01.172Z,37.60
2022-10-29T08:40:43.540Z,35.47
2022-10-29T08:43:22.192Z,64.35
2022-10-29T08:45:51.998Z,37.00
2022-10-29T08:48:24.637Z,54.45
2022-10-29T08:50:58.597Z,56.00
2022-10-29T08:56:55.004Z,48.80
2022-10-29T08:59:24.285Z,63.88
2022-10-29T09:01:54.876Z,45.95
2022-10-29T09:04:36.280Z,76.05
2022-10-29T09:07:24.330Z,42.85
2022-10-29T09:10:04.310Z,54.50
2022-10-29T09:12:52.223Z,58.15
2022-10-29T09:15:38.685Z,59.55
2022-10-29T09:18:24.202Z,53.83
2022-10-29T09:21:28.877Z,51.15
2022-10-29T09:24:12.492Z,55.00
2022-10-29T09:26:57.494Z,51.72
2022-10-29T09:29:47.270Z,56.08
2022-10-29T09:32:18.138Z,51.47
2022-10-29T09:34:50.756Z,49.83
2022-10-29T09:37:28.310Z,55.63
2022-10-29T09:39:57.182Z,51.58
2022-10-29T09:42:35.604Z,52.10
2022-10-29T09:45:05.874Z,53.42
2022-10-29T09:47:50.543Z,54.83
2022-10-29T09:50:22.282Z,55.55
2022-10-29T09:52:49.664Z,51.33
2022-10-29T09:55:28.026Z,54.30
2022-10-29T09:57:57.071Z,51.75
2022-10-29T10:00:27.826Z,50.92
2022-10-29T10:03:21.964Z,60.80
2022-10-29T10:06:04.209Z,61.72
2022-10-29T10:08:34.840Z,52.17
2022-10-29T10:11:07.361Z,58.95
2022-10-29T10:13:36.577Z,56.22
2022-10-29T10:16:06.093Z,62.65
2022-10-29T10:18:33.104Z,54.47
2022-10-29T10:21:01.984Z,59.38
2022-10-29T10:23:42.846Z,57.17
2022-10-29T10:26:44.891Z,50.33
2022-10-29T10:29:18.840Z,57.45
2022-10-29T10:31:51.139Z,52.90
2022-10-29T10:34:22.242Z,59.88
2022-10-29T10:36:54.814Z,55.30
2022-10-29T10:39:28.186Z,54.63
2022-10-29T10:41:57.319Z,57.25
2022-10-29T10:44:24.536Z,53.65
2022-10-29T10:46:54.540Z,51.17
2022-10-29T10:49:31.227Z,54.90
2022-10-29T10:52:01.658Z,51.72
2022-10-29T10:54:41.880Z,49.92
2022-10-29T10:57:11.537Z,51.78
2022-10-29T10:59:56.380Z,53.85
2022-10-29T11:03:14.356Z,54.38
2022-10-29T11:06:10.264Z,53.13
2022-10-29T11:08:45.766Z,49.10
2022-10-29T11:11:21.706Z,49.92
2022-10-29T11:13:50.415Z,49.03
2022-10-29T11:16:46.899Z,48.08
2022-10-29T11:19:26.696Z,44.80
2022-10-29T11:22:02.557Z,44.90
2022-10-29T11:24:44.460Z,44.15
2022-10-29T11:27:24.075Z,48.53
2022-10-29T11:30:05.383Z,43.83
2022-10-29T11:32:41.314Z,40.90
2022-10-29T11:35:20.358Z,42.22
2022-10-29T11:38:00.048Z,34.47
2022-10-29T11:40:50.866Z,33.88
2022-10-29T11:43:19.800Z,33.97
2022-10-29T11:46:08.927Z,33.88
2022-10-29T11:48:56.373Z,32.10
2022-10-29T11:51:33.555Z,32.03
2022-10-29T11:54:22.207Z,33.20
2022-10-29T11:57:01.498Z,30.55
2022-10-29T12:00:00.592Z,37.28
2022-10-29T12:03:00.418Z,33.97
2022-10-29T12:05:41.387Z,35.75
2022-10-29T12:08:14.054Z,34.78
2022-10-29T12:11:05.544Z,31.80
2022-10-29T12:13:35.254Z,35.42
2022-10-29T12:16:07.868Z,34.63
2022-10-29T12:18:57.957Z,38.33
2022-10-29T12:22:09.040Z,37.55
2022-10-29T12:25:05.264Z,37.65
2022-10-29T12:27:44.936Z,38.78
2022-10-29T12:30:16.102Z,43.10
2022-10-29T12:33:25.233Z,44.30
2022-10-29T12:36:19.628Z,45.72
2022-10-29T12:38:54.646Z,43.78
2022-10-29T12:41:25.576Z,43.90
2022-10-29T12:44:01.408Z,36.35
2022-10-29T12:46:38.118Z,36.78
2022-10-29T12:49:21.158Z,39.08
2022-10-29T12:52:02.646Z,41.38
2022-10-29T12:54:51.438Z,39.88
2022-10-29T12:57:18.147Z,44.55
2022-10-29T12:59:45.549Z,44.15
2022-10-29T13:02:21.455Z,36.63
2022-10-29T13:05:06.985Z,35.85
2022-10-29T13:07:34.724Z,33.25
2022-10-29T13:10:32.290Z,30.13
2022-10-29T13:12:59.114Z,26.55
2022-10-29T13:15:31.812Z,23.58
2022-10-29T13:18:14.487Z,22.90
2022-10-29T13:20:50.607Z,20.63
2022-10-29T13:23:23.422Z,27.58
2022-10-29T13:25:55.137Z,28.02
2022-10-29T13:28:21.937Z,28.60
2022-10-29T13:31:13.144Z,28.23
2022-10-29T13:33:39.879Z,29.50
2022-10-29T13:36:15.666Z,27.38
2022-10-29T13:39:07.316Z,26.17
2022-10-29T13:41:42.353Z,25.73
2022-10-29T13:44:14.371Z,24.23
2022-10-29T13:46:47.394Z,21.67
2022-10-29T13:49:22.202Z,25.83
2022-10-29T13:51:54.604Z,23.33
2022-10-29T13:54:44.101Z,23.15
2022-10-29T13:57:42.503Z,24.17
2022-10-29T14:00:12.305Z,25.48
2022-10-29T14:02:42.211Z,24.95
2022-10-29T14:05:15.212Z,26.42
2022-10-29T14:08:14.123Z,25.45
2022-10-29T14:10:40.847Z,25.60
2022-10-29T14:13:13.737Z,27.55
2022-10-29T14:16:05.104Z,27.10
2022-10-29T14:18:34.096Z,26.38
2022-10-29T14:21:02.597Z,28.08
2022-10-29T14:23:31.749Z,26.98
2022-10-29T14:26:00.564Z,28.77
2022-10-29T14:28:31.926Z,30.27
2022-10-29T14:31:17.339Z,28.52
2022-10-29T14:33:46.106Z,27.00
2022-10-29T14:36:39.026Z,27.10
2022-10-29T14:39:16.897Z,26.25
2022-10-29T14:41:45.696Z,27.83
2022-10-29T14:44:19.685Z,27.02
2022-10-29T14:47:00.957Z,28.23
2022-10-29T14:49:28.840Z,28.42
2022-10-29T14:52:00.875Z,27.00
2022-10-29T14:54:34.302Z,27.85
2022-10-29T14:57:06.458Z,30.40
2022-10-29T14:59:35.631Z,31.05
2022-10-29T15:02:36.230Z,31.58
2022-10-29T15:05:01.854Z,30.55
2022-10-29T15:07:35.425Z,32.53
2022-10-29T15:10:08.067Z,31.05
2022-10-29T15:12:37.832Z,32.83
2022-10-29T15:15:18.300Z,32.33
2022-10-29T15:18:06.430Z,32.42
2022-10-29T15:20:42.022Z,32.70
2022-10-29T15:23:25.066Z,32.38
2022-10-29T15:25:58.763Z,31.35
2022-10-29T15:28:28.824Z,33.05
2022-10-29T15:30:56.035Z,31.77
2022-10-29T15:33:28.011Z,31.73
2022-10-29T15:36:01.935Z,32.72
2022-10-29T15:38:28.769Z,32.20
2022-10-29T15:41:29.919Z,31.58
2022-10-29T15:43:58.688Z,32.22
2022-10-29T15:46:28.802Z,30.38
2022-10-29T15:48:55.911Z,32.33
2022-10-29T15:51:28.379Z,33.35
2022-10-29T15:53:56.307Z,31.23
2022-10-29T15:56:24.317Z,33.72
2022-10-29T15:58:52.520Z,32.78
2022-10-29T16:01:19.426Z,34.25
2022-10-29T16:03:46.334Z,36.08
2022-10-29T16:06:15.836Z,32.92
2022-10-29T16:08:47.702Z,37.38
2022-10-29T16:11:16.622Z,39.15
2022-10-29T16:13:43.421Z,40.65
2022-10-29T16:16:16.001Z,40.88
2022-10-29T16:18:44.012Z,43.85
2022-10-29T16:21:14.725Z,45.97
2022-10-29T16:23:41.688Z,50.22
2022-10-29T16:26:16.857Z,47.88
2022-10-29T16:28:43.780Z,49.53
2022-10-29T16:31:23.293Z,48.30
2022-10-29T16:33:52.783Z,47.75
2022-10-29T16:36:20.141Z,46.25
2022-10-29T16:38:46.897Z,48.28
2022-10-29T16:41:15.283Z,50.13
2022-10-29T16:43:42.591Z,49.72
2022-10-29T16:46:10.136Z,49.25
2022-10-29T16:48:37.039Z,49.20
2022-10-29T16:51:04.587Z,50.40
2022-10-29T16:53:31.480Z,51.92
2022-10-29T16:55:58.414Z,52.33
2022-10-29T16:58:25.234Z,51.30
2022-10-29T17:01:01.887Z,54.38
2022-10-29T17:03:28.851Z,51.55
2022-10-29T17:05:55.698Z,49.22
2022-10-29T17:08:22.650Z,53.15
2022-10-29T17:10:49.523Z,53.17
2022-10-29T17:13:16.327Z,50.88
2022-10-29T17:15:43.139Z,50.13
2022-10-29T17:18:10.083Z,51.38
2022-10-29T17:20:37.047Z,51.08
2022-10-29T17:23:03.897Z,50.42
2022-10-29T17:25:30.799Z,51.90
2022-10-29T17:27:58.036Z,51.30
2022-10-29T17:30:25.191Z,50.90
2022-10-29T17:32:52.063Z,49.95
2022-10-29T17:35:18.866Z,49.65
2022-10-29T17:37:45.734Z,50.30
2022-10-29T17:40:13.199Z,51.30
2022-10-29T17:42:40.086Z,51.30
2022-10-29T17:45:07.641Z,52.67
2022-10-29T17:47:34.509Z,51.42
2022-10-29T17:50:01.370Z,46.35
2022-10-29T17:52:28.192Z,48.95
2022-10-29T17:54:55.046Z,50.95
2022-10-29T17:57:21.844Z,51.08
2022-10-29T17:59:48.707Z,51.95
2022-10-29T18:02:15.660Z,52.38
2022-10-29T18:04:42.620Z,50.15
2022-10-29T18:07:09.420Z,49.92
2022-10-29T18:09:36.316Z,50.33
2022-10-29T18:12:03.303Z,49.65
2022-10-29T18:14:30.122Z,49.22
2022-10-29T18:16:57.015Z,50.63
2022-10-29T18:19:23.888Z,47.58
2022-10-29T18:21:50.732Z,49.85
2022-10-29T18:24:19.426Z,48.88
2022-10-29T18:26:50.235Z,51.28
2022-10-29T18:29:17.357Z,50.30
2022-10-29T18:31:47.070Z,48.45
2022-10-29T18:34:15.321Z,50.53
2022-10-29T18:36:43.225Z,50.42
2022-10-29T18:39:10.245Z,48.83
2022-10-29T18:41:37.067Z,48.75
2022-10-29T18:44:04.310Z,48.60
2022-10-29T18:46:31.441Z,44.72
2022-10-29T18:49:00.160Z,47.10
2022-10-29T18:51:29.553Z,46.05
2022-10-29T18:54:00.685Z,48.30
2022-10-29T18:56:29.406Z,48.10
2022-10-29T18:58:57.623Z,46.97
2022-10-29T19:01:27.517Z,46.22
2022-10-29T19:03:56.884Z,47.15
2022-10-29T19:06:25.728Z,44.28
2022-10-29T19:08:52.912Z,47.72
2022-10-29T19:11:22.231Z,44.88
2022-10-29T19:14:00.386Z,44.08
2022-10-29T19:16:28.195Z,43.63
2022-10-29T19:19:00.591Z,45.42
2022-10-29T19:21:27.750Z,46.95
2022-10-29T19:23:59.756Z,45.90
2022-10-29T19:26:28.653Z,42.83
2022-10-29T19:28:55.972Z,44.83
2022-10-29T19:31:26.610Z,46.25
2022-10-29T19:33:59.083Z,45.60
2022-10-29T19:36:27.255Z,46.67
2022-10-29T19:38:54.539Z,48.40
2022-10-29T19:41:21.438Z,47.22
2022-10-29T19:43:48.304Z,47.13
2022-10-29T19:46:17.643Z,46.33
2022-10-29T19:48:50.359Z,48.55
2022-10-29T19:51:17.336Z,48.08
2022-10-29T19:53:44.172Z,45.53
2022-10-29T19:56:13.199Z,47.00
2022-10-29T19:58:40.165Z,49.17
2022-10-29T20:01:12.268Z,48.03
2022-10-29T20:03:39.195Z,47.97
2022-10-29T20:06:09.076Z,48.65
2022-10-29T20:08:39.217Z,49.28
2022-10-29T20:11:09.389Z,48.75
2022-10-29T20:13:36.849Z,49.25
2022-10-29T20:16:11.816Z,47.08
2022-10-29T20:18:38.604Z,47.38
2022-10-29T20:23:38.033Z,47.65
2022-10-29T20:26:05.512Z,47.78
2022-10-29T20:28:32.372Z,49.08
2022-10-29T20:31:38.544Z,46.88
2022-10-29T20:34:09.438Z,48.55
2022-10-29T20:36:36.357Z,49.05
2022-10-29T20:39:03.555Z,47.42
2022-10-29T20:41:30.502Z,50.85
2022-10-29T20:43:59.746Z,50.35
2022-10-29T20:46:27.367Z,48.63
2022-10-29T20:48:54.508Z,49.55
2022-10-29T20:51:22.848Z,47.75
2022-10-29T20:53:50.378Z,47.83
2022-10-29T20:56:18.922Z,47.13
2022-10-29T20:58:45.846Z,50.22
2022-10-29T21:01:15.643Z,49.40
2022-10-29T21:03:43.591Z,51.58
2022-10-29T21:06:16.924Z,52.55
2022-10-29T21:08:48.663Z,50.70
2022-10-29T21:11:17.498Z,51.35
2022-10-29T21:13:44.820Z,52.75
2022-10-29T21:16:22.580Z,50.92
2022-10-29T21:18:52.400Z,54.47
2022-10-29T21:21:19.724Z,51.20
2022-10-29T21:23:46.589Z,52.50
2022-10-29T21:26:16.119Z,53.35
2022-10-29T21:28:43.404Z,52.20
2022-10-29T21:31:10.325Z,52.55
2022-10-29T21:33:37.771Z,52.35
2022-10-29T21:36:05.702Z,55.08
2022-10-29T21:38:33.562Z,53.60
2022-10-29T21:41:03.364Z,54.45
2022-10-29T21:43:30.570Z,53.90
2022-10-29T21:45:57.914Z,51.40
2022-10-29T21:48:28.846Z,53.70
2022-10-29T21:51:12.437Z,50.17
2022-10-29T21:53:39.442Z,50.40
2022-10-29T21:56:08.565Z,51.53
2022-10-29T21:58:35.427Z,49.30
2022-10-29T22:01:08.260Z,48.28
2022-10-29T22:03:38.158Z,48.42
2022-10-29T22:06:30.623Z,48.83
2022-10-29T22:08:59.284Z,46.85
2022-10-29T22:11:28.248Z,47.85
2022-10-29T22:13:55.351Z,47.53
2022-10-29T22:16:22.668Z,45.08
2022-10-29T22:18:50.034Z,48.38
2022-10-29T22:21:23.309Z,45.72
2022-10-29T22:23:52.524Z,43.85
2022-10-29T22:26:21.506Z,43.60
2022-10-29T22:28:48.528Z,43.20
2022-10-29T22:31:16.961Z,43.40
2022-10-29T22:33:44.943Z,45.42
2022-10-29T22:36:17.424Z,43.38
2022-10-29T22:38:44.729Z,45.50
2022-10-29T22:41:16.567Z,41.92
2022-10-29T22:43:44.770Z,43.13
2022-10-29T22:46:18.896Z,42.33
2022-10-29T22:48:46.012Z,39.47
2022-10-29T22:51:14.608Z,38.45
2022-10-29T22:53:41.941Z,40.17
2022-10-29T22:56:14.187Z,37.67
2022-10-29T22:58:41.346Z,38.28
2022-10-29T23:01:14.830Z,38.50
2022-10-29T23:03:42.218Z,37.20
2022-10-29T23:06:11.528Z,36.38
2022-10-29T23:08:38.667Z,39.35
2022-10-29T23:11:21.817Z,41.53
2022-10-29T23:13:50.689Z,38.58
2022-10-29T23:16:17.763Z,37.47
2022-10-29T23:18:51.673Z,38.92
2022-10-29T23:21:19.400Z,41.22
2022-10-29T23:23:46.809Z,40.15
2022-10-29T23:26:15.151Z,40.58
2022-10-29T23:28:45.741Z,42.20
2022-10-29T23:31:15.396Z,41.45
2022-10-29T23:33:46.648Z,42.63
2022-10-29T23:36:14.749Z,42.60
2022-10-29T23:38:42.093Z,41.05
2022-10-29T23:41:09.004Z,40.58
2022-10-29T23:43:35.860Z,40.30
2022-10-29T23:46:03.117Z,40.38
2022-10-29T23:48:30.020Z,40.13
2022-10-29T23:50:57.593Z,40.95
2022-10-29T23:53:24.783Z,37.75
2022-10-29T23:55:51.884Z,38.75
2022-10-29T23:58:21.273Z,38.65
